Time;durP1;ratioP1;P1;durP2;ratioP2;P2;SDS_P1;SDS_P2;PMS_P1;PMS_P2;Temp;Humidity;BMP_temperature;BMP_pressure;BME280_temperature;BME280_humidity;BME280_pressure;Samples;Min_cycle;Max_cycle;Signal;HPM_P1;HPM_P2
2022/11/11 00:00:22;;;;;;;;;;;;;;;4.52;100.00;99816.94;2586303;28;20012;-80
2022/11/11 00:01:58;;;;;;;;;;;;;;;4.27;100.00;99816.47;2586055;28;20193;-81
2022/11/11 00:03:14;;;;;;;;;;;;;;;4.42;100.00;99828.88;2585696;28;20335;-79
2022/11/11 00:04:30;;;;;;;;;;;;;;;3.91;100.00;99825.22;2586098;28;20035;-81
2022/11/11 00:05:45;;;;;;;;;;;;;;;3.97;100.00;99835.72;2586320;28;19932;-80
2022/11/11 00:07:00;;;;;;;;;;;;;;;4.01;100.00;99839.28;2586172;28;20305;-80
2022/11/11 00:08:16;;;;;;;;;;;;;;;4.08;100.00;99834.25;2585735;28;19925;-80
2022/11/11 00:09:32;;;;;;;;;;;;;;;4.13;100.00;99830.88;2585981;28;19925;-80
2022/11/11 00:10:47;;;;;;;;;;;;;;;4.33;100.00;99837.34;2585610;28;20368;-83
2022/11/11 00:12:02;;;;;;;;;;;;;;;4.58;100.00;99839.53;2586335;28;19932;-83
2022/11/11 00:13:18;;;;;;;;;;;;;;;4.70;100.00;99841.47;2585897;28;20280;-80
2022/11/11 00:14:34;;;;;;;;;;;;;;;4.77;100.00;99838.16;2586213;28;19930;-80
2022/11/11 00:15:49;;;;;;;;;;;;;;;4.51;100.00;99838.53;2586137;28;19921;-80
2022/11/11 00:25:05;;;;;;;;;;;;;;;4.60;100.00;99830.91;2586064;28;19984;-78
2022/11/11 00:26:20;;;;;;;;;;;;;;;4.49;100.00;99833.31;2585977;28;20019;-78
2022/11/11 00:27:37;;;;;;;;;;;;;;;4.49;100.00;99827.25;2586065;28;20288;-79
2022/11/11 00:28:53;;;;;;;;;;;;;;;4.15;100.00;99831.75;2586136;28;20231;-80
2022/11/11 00:30:08;;;;;;;;;;;;;;;3.87;100.00;99826.00;2586198;28;19925;-81
2022/11/11 00:31:24;;;;;;;;;;;;;;;3.98;100.00;99829.69;2585828;28;20055;-79
2022/11/11 00:32:39;;;;;;;;;;;;;;;3.95;100.00;99822.72;2585958;28;19925;-80
2022/11/11 00:33:55;;;;;;;;;;;;;;;3.98;100.00;99824.53;2585338;28;19925;-80
2022/11/11 00:36:44;;;;;;;;;;;;;;;3.74;100.00;99825.72;2585602;28;20008;-80
2022/11/11 00:38:06;;;;;;;;;;;;;;;3.71;100.00;99825.66;2586438;28;19929;-79
2022/11/11 00:39:22;;;;;;;;;;;;;;;4.02;100.00;99826.31;2586009;28;20012;-80
2022/11/11 00:40:37;;;;;;;;;;;;;;;3.78;100.00;99824.97;2584774;28;19926;-77
2022/11/11 00:41:53;;;;;;;;;;;;;;;3.92;100.00;99827.84;2585287;28;20842;-79
2022/11/11 00:43:08;;;;;;;;;;;;;;;3.73;100.00;99829.16;2585687;28;19925;-84
2022/11/11 00:44:23;;;;;;;;;;;;;;;3.89;100.00;99826.91;2585943;28;19937;-79
2022/11/11 00:45:39;;;;;;;;;;;;;;;3.80;100.00;99830.16;2586243;28;19932;-79
2022/11/11 00:51:38;;;;;;;;;;;;;;;3.62;100.00;99834.09;2586688;28;20184;-80
2022/11/11 00:52:54;;;;;;;;;;;;;;;3.65;100.00;99846.25;2587563;28;20068;-79
2022/11/11 00:54:10;;;;;;;;;;;;;;;3.52;100.00;99845.09;2587543;28;19933;-79
2022/11/11 00:55:25;;;;;;;;;;;;;;;3.92;100.00;99845.13;2587762;28;19948;-79
2022/11/11 00:56:40;;;;;;;;;;;;;;;4.03;100.00;99845.34;2588335;28;20379;-79
2022/11/11 00:57:56;;;;;;;;;;;;;;;4.07;100.00;99848.03;2587991;28;19960;-80
2022/11/11 00:59:11;;;;;;;;;;;;;;;4.15;100.00;99843.03;2587820;28;20412;-79
2022/11/11 01:00:27;;;;;;;;;;;;;;;4.21;100.00;99844.88;2587836;28;19928;-82
2022/11/11 01:01:42;;;;;;;;;;;;;;;4.18;100.00;99847.38;2588162;28;20021;-78
2022/11/11 01:02:58;;;;;;;;;;;;;;;4.03;100.00;99847.94;2588102;28;19925;-79
2022/11/11 01:04:13;;;;;;;;;;;;;;;4.05;100.00;99846.25;2588214;28;19929;-79
2022/11/11 01:05:29;;;;;;;;;;;;;;;4.22;100.00;99844.03;2587626;28;19925;-79
2022/11/11 01:06:44;;;;;;;;;;;;;;;4.23;100.00;99853.56;2587790;28;19983;-80
2022/11/11 01:08:00;;;;;;;;;;;;;;;4.20;100.00;99851.75;2587547;28;19925;-81
2022/11/11 01:09:15;;;;;;;;;;;;;;;4.21;100.00;99852.66;2587784;28;19926;-81
2022/11/11 01:10:43;;;;;;;;;;;;;;;3.81;100.00;99848.34;2587758;28;19971;-80
2022/11/11 01:11:58;;;;;;;;;;;;;;;3.78;100.00;99847.41;2587981;28;19931;-80
2022/11/11 01:13:18;;;;;;;;;;;;;;;3.78;100.00;99850.88;2587635;28;19929;-80
2022/11/11 01:14:34;;;;;;;;;;;;;;;3.96;100.00;99863.34;2587598;28;19929;-79
2022/11/11 01:15:51;;;;;;;;;;;;;;;3.58;100.00;99860.78;2588073;28;19971;-80
2022/11/11 01:17:08;;;;;;;;;;;;;;;3.59;100.00;99864.22;2587597;28;19995;-81
2022/11/11 01:18:25;;;;;;;;;;;;;;;3.79;100.00;99872.47;2588050;28;20149;-79
2022/11/11 01:19:40;;;;;;;;;;;;;;;3.75;100.00;99875.84;2586951;28;19925;-79
2022/11/11 01:21:00;;;;;;;;;;;;;;;3.60;100.00;99868.56;2587681;28;19932;-81
2022/11/11 01:22:15;;;;;;;;;;;;;;;3.79;100.00;99881.13;2587326;28;19925;-79
2022/11/11 01:23:32;;;;;;;;;;;;;;;3.60;100.00;99884.13;2587818;28;19926;-80
2022/11/11 01:24:47;;;;;;;;;;;;;;;3.51;100.00;99883.06;2587550;28;19961;-79
2022/11/11 01:26:04;;;;;;;;;;;;;;;3.53;100.00;99878.81;2587867;28;20301;-79
2022/11/11 01:27:19;;;;;;;;;;;;;;;3.70;100.00;99888.69;2587524;28;20468;-79
2022/11/11 01:28:35;;;;;;;;;;;;;;;3.71;100.00;99881.78;2587133;28;19926;-79
2022/11/11 01:29:50;;;;;;;;;;;;;;;3.73;100.00;99880.97;2587453;28;19925;-81
2022/11/11 01:31:10;;;;;;;;;;;;;;;3.95;100.00;99886.66;2587510;28;19964;-79
2022/11/11 01:32:25;;;;;;;;;;;;;;;3.86;100.00;99883.84;2587331;28;19975;-79
2022/11/11 01:33:41;;;;;;;;;;;;;;;3.87;100.00;99881.28;2587351;28;19925;-79
2022/11/11 01:34:56;;;;;;;;;;;;;;;3.79;100.00;99881.13;2587362;28;19975;-79
2022/11/11 01:36:16;;;;;;;;;;;;;;;3.55;100.00;99873.63;2587691;28;19933;-80
2022/11/11 01:37:32;;;;;;;;;;;;;;;3.32;100.00;99881.75;2587157;28;19932;-81
2022/11/11 01:38:49;;;;;;;;;;;;;;;3.43;100.00;99887.19;2587159;28;20430;-79
2022/11/11 01:40:04;;;;;;;;;;;;;;;3.54;100.00;99882.25;2587639;28;20283;-86
2022/11/11 01:41:34;;;;;;;;;;;;;;;3.56;100.00;99883.16;2587352;28;19925;-80
2022/11/11 01:42:50;;;;;;;;;;;;;;;3.43;100.00;99883.72;2586805;28;20593;-80
2022/11/11 01:44:12;;;;;;;;;;;;;;;3.17;100.00;99883.97;2587571;28;20444;-79
2022/11/11 01:45:46;;;;;;;;;;;;;;;3.42;100.00;99872.47;2587251;28;19925;-80
2022/11/11 01:47:03;;;;;;;;;;;;;;;3.39;100.00;99875.88;2587045;28;19929;-79
2022/11/11 01:49:59;;;;;;;;;;;;;;;3.33;100.00;99877.44;2587403;28;20323;-79
2022/11/11 01:51:24;;;;;;;;;;;;;;;3.19;100.00;99871.91;2587515;28;19953;-79
2022/11/11 01:52:41;;;;;;;;;;;;;;;3.43;100.00;99874.22;2587302;28;19928;-79
2022/11/11 01:53:59;;;;;;;;;;;;;;;3.39;100.00;99875.00;2586986;28;19963;-83
2022/11/11 01:55:17;;;;;;;;;;;;;;;3.40;100.00;99874.16;2587689;28;20056;-79
2022/11/11 01:56:33;;;;;;;;;;;;;;;3.41;100.00;99870.72;2587302;28;20479;-80
2022/11/11 01:57:52;;;;;;;;;;;;;;;3.60;100.00;99873.75;2586765;28;20379;-81
2022/11/11 01:59:10;;;;;;;;;;;;;;;3.61;100.00;99872.91;2587469;28;20360;-79
2022/11/11 02:00:26;;;;;;;;;;;;;;;3.55;100.00;99871.03;2586867;28;20053;-80
2022/11/11 02:01:41;;;;;;;;;;;;;;;3.74;100.00;99869.75;2587604;28;21063;-79
2022/11/11 02:03:04;;;;;;;;;;;;;;;3.61;100.00;99870.31;2587110;28;20391;-83
2022/11/11 02:05:56;;;;;;;;;;;;;;;3.84;100.00;99862.22;2587269;28;19960;-80
2022/11/11 02:07:12;;;;;;;;;;;;;;;3.77;100.00;99856.00;2587598;28;19929;-79
2022/11/11 02:08:33;;;;;;;;;;;;;;;3.65;100.00;99857.47;2586344;28;20365;-79
2022/11/11 02:09:50;;;;;;;;;;;;;;;3.53;100.00;99860.66;2587204;28;19929;-80
2022/11/11 02:11:09;;;;;;;;;;;;;;;3.38;100.00;99855.13;2586923;28;19956;-79
2022/11/11 02:15:33;;;;;;;;;;;;;;;3.57;100.00;99853.84;2587089;28;19925;-80
2022/11/11 02:16:49;;;;;;;;;;;;;;;3.67;100.00;99863.56;2586609;28;20043;-80
2022/11/11 02:18:05;;;;;;;;;;;;;;;3.74;100.00;99856.81;2587031;28;19963;-80
2022/11/11 02:19:28;;;;;;;;;;;;;;;3.46;100.00;99861.34;2587078;28;19977;-80
2022/11/11 02:20:43;;;;;;;;;;;;;;;3.22;100.00;99856.47;2587448;28;19944;-79
2022/11/11 02:22:01;;;;;;;;;;;;;;;3.43;100.00;99853.50;2586595;28;19925;-79
2022/11/11 02:23:36;;;;;;;;;;;;;;;3.58;100.00;99855.59;2586813;28;20033;-79
2022/11/11 02:24:52;;;;;;;;;;;;;;;3.67;100.00;99855.78;2587053;28;19921;-79
2022/11/11 02:26:09;;;;;;;;;;;;;;;3.59;100.00;99852.19;2586364;28;19925;-79
2022/11/11 02:27:26;;;;;;;;;;;;;;;3.50;100.00;99858.03;2587229;28;19925;-78
2022/11/11 02:28:41;;;;;;;;;;;;;;;3.61;100.00;99857.38;2586992;28;20442;-79
2022/11/11 02:30:00;;;;;;;;;;;;;;;3.74;100.00;99856.81;2586315;28;20050;-79
2022/11/11 02:31:15;;;;;;;;;;;;;;;3.86;100.00;99857.94;2586965;28;19960;-78
2022/11/11 02:32:31;;;;;;;;;;;;;;;3.92;100.00;99856.34;2586764;28;20027;-78
2022/11/11 02:33:46;;;;;;;;;;;;;;;3.85;100.00;99856.19;2587024;28;19924;-78
2022/11/11 02:35:08;;;;;;;;;;;;;;;3.94;100.00;99852.06;2587064;28;19977;-80
2022/11/11 02:36:23;;;;;;;;;;;;;;;3.95;100.00;99856.41;2586528;28;19925;-83
2022/11/11 02:37:41;;;;;;;;;;;;;;;3.85;100.00;99853.59;2587042;28;19926;-78
2022/11/11 02:38:56;;;;;;;;;;;;;;;4.01;100.00;99855.69;2586677;28;19953;-81
2022/11/11 02:40:13;;;;;;;;;;;;;;;3.93;100.00;99855.50;2587053;28;20410;-78
2022/11/11 02:43:03;;;;;;;;;;;;;;;3.79;100.00;99859.50;2586975;28;20023;-83
2022/11/11 02:44:19;;;;;;;;;;;;;;;3.72;100.00;99866.28;2586888;28;19925;-78
2022/11/11 02:45:34;;;;;;;;;;;;;;;3.74;100.00;99867.19;2586945;28;19961;-79
2022/11/11 02:46:50;;;;;;;;;;;;;;;3.70;100.00;99864.47;2587125;28;20283;-79
2022/11/11 02:48:05;;;;;;;;;;;;;;;3.29;100.00;99862.66;2586929;28;19941;-79
2022/11/11 02:49:20;;;;;;;;;;;;;;;3.62;100.00;99872.97;2586459;28;19925;-79
2022/11/11 02:50:36;;;;;;;;;;;;;;;3.55;100.00;99867.59;2587177;28;20584;-79
2022/11/11 02:51:51;;;;;;;;;;;;;;;3.62;100.00;99869.47;2586526;28;20380;-79
2022/11/11 02:53:07;;;;;;;;;;;;;;;3.67;100.00;99865.31;2586562;28;20659;-82
2022/11/11 02:54:23;;;;;;;;;;;;;;;3.56;100.00;99861.56;2586761;28;19992;-79
2022/11/11 02:55:38;;;;;;;;;;;;;;;3.51;100.00;99864.94;2586183;28;19925;-78
2022/11/11 02:57:06;;;;;;;;;;;;;;;3.51;100.00;99877.00;2586235;28;19960;-79
2022/11/11 02:58:22;;;;;;;;;;;;;;;3.56;100.00;99880.56;2586997;28;19973;-79
2022/11/11 02:59:38;;;;;;;;;;;;;;;3.80;100.00;99890.66;2586142;28;20426;-79
2022/11/11 03:00:54;;;;;;;;;;;;;;;3.87;100.00;99886.47;2586752;28;20618;-79
2022/11/11 03:02:09;;;;;;;;;;;;;;;3.89;100.00;99887.38;2586927;28;19930;-79
2022/11/11 03:03:24;;;;;;;;;;;;;;;3.99;100.00;99879.81;2587032;28;19936;-78
2022/11/11 03:04:40;;;;;;;;;;;;;;;3.97;100.00;99884.97;2586926;28;19925;-79
2022/11/11 03:05:56;;;;;;;;;;;;;;;3.68;100.00;99883.44;2586011;28;20021;-79
2022/11/11 03:07:11;;;;;;;;;;;;;;;3.49;100.00;99881.28;2586675;28;20863;-79
2022/11/11 03:08:27;;;;;;;;;;;;;;;3.47;100.00;99886.41;2586708;28;19937;-80
2022/11/11 03:09:42;;;;;;;;;;;;;;;3.50;100.00;99890.78;2586402;28;19948;-79
2022/11/11 03:10:57;;;;;;;;;;;;;;;3.34;100.00;99892.13;2586446;28;19925;-79
2022/11/11 03:12:13;;;;;;;;;;;;;;;3.53;100.00;99898.63;2575830;28;19972;-78
2022/11/11 03:13:29;;;;;;;;;;;;;;;3.74;100.00;99895.66;2578857;28;20368;-79
2022/11/11 03:14:44;;;;;;;;;;;;;;;3.93;100.00;99893.53;2585924;28;20052;-79
2022/11/11 03:15:59;;;;;;;;;;;;;;;4.05;100.00;99893.78;2586629;28;20260;-82
2022/11/11 03:18:49;;;;;;;;;;;;;;;4.13;100.00;99895.66;2586092;28;19952;-79
2022/11/11 03:21:40;;;;;;;;;;;;;;;4.22;100.00;99895.88;2585695;28;20395;-79
2022/11/11 03:23:05;;;;;;;;;;;;;;;4.36;100.00;99888.38;2586368;28;19931;-78
2022/11/11 03:24:21;;;;;;;;;;;;;;;4.04;100.00;99892.00;2585829;28;19926;-79
2022/11/11 03:25:37;;;;;;;;;;;;;;;4.08;100.00;99892.97;2580866;28;20316;-80
2022/11/11 03:26:53;;;;;;;;;;;;;;;4.25;100.00;99885.56;2581951;28;20544;-79
2022/11/11 03:28:15;;;;;;;;;;;;;;;4.19;100.00;99885.41;2586402;28;19925;-77
2022/11/11 03:29:31;;;;;;;;;;;;;;;4.43;100.00;99885.06;2586070;28;19986;-79
2022/11/11 03:30:48;;;;;;;;;;;;;;;4.35;100.00;99886.63;2586174;28;19925;-78
2022/11/11 03:32:04;;;;;;;;;;;;;;;4.23;100.00;99872.56;2586760;28;19922;-79
2022/11/11 03:33:19;;;;;;;;;;;;;;;4.18;100.00;99873.28;2586181;28;19925;-79
2022/11/11 03:34:35;;;;;;;;;;;;;;;4.13;100.00;99870.63;2586347;28;19964;-80
2022/11/11 03:35:50;;;;;;;;;;;;;;;4.21;100.00;99871.66;2586278;28;19948;-79
2022/11/11 03:38:41;;;;;;;;;;;;;;;4.18;100.00;99876.78;2586677;28;19926;-79
2022/11/11 03:39:56;;;;;;;;;;;;;;;4.12;100.00;99878.38;2585552;28;19932;-79
2022/11/11 03:41:12;;;;;;;;;;;;;;;4.16;100.00;99873.28;2585617;28;20512;-80
2022/11/11 03:42:27;;;;;;;;;;;;;;;4.31;100.00;99885.66;2585851;28;19926;-83
2022/11/11 03:43:42;;;;;;;;;;;;;;;4.16;100.00;99881.06;2586306;28;19926;-83
2022/11/11 03:44:58;;;;;;;;;;;;;;;4.13;100.00;99883.59;2586205;28;19961;-80
2022/11/11 03:46:13;;;;;;;;;;;;;;;4.21;100.00;99879.44;2586242;28;20528;-80
2022/11/11 03:47:29;;;;;;;;;;;;;;;4.28;100.00;99879.56;2586329;28;19925;-79
2022/11/11 03:48:44;;;;;;;;;;;;;;;4.32;100.00;99881.38;2586216;28;19936;-79
2022/11/11 03:50:00;;;;;;;;;;;;;;;4.39;100.00;99883.25;2586259;28;19929;-79
2022/11/11 03:51:15;;;;;;;;;;;;;;;4.39;100.00;99878.06;2586155;28;19922;-78
2022/11/11 03:52:30;;;;;;;;;;;;;;;4.36;100.00;99878.88;2586217;28;20022;-79
2022/11/11 03:53:46;;;;;;;;;;;;;;;4.46;100.00;99884.25;2586343;28;19921;-79
2022/11/11 03:55:01;;;;;;;;;;;;;;;4.41;100.00;99878.97;2585445;28;19921;-78
2022/11/11 03:56:17;;;;;;;;;;;;;;;4.36;100.00;99878.88;2586468;28;20376;-79
2022/11/11 03:57:32;;;;;;;;;;;;;;;4.23;100.00;99888.09;2586344;28;19921;-79
2022/11/11 03:58:48;;;;;;;;;;;;;;;4.28;100.00;99880.44;2586591;28;20595;-79
2022/11/11 04:00:04;;;;;;;;;;;;;;;4.23;100.00;99879.47;2586166;28;19925;-81
2022/11/11 04:11:14;;;;;;;;;;;;;;;3.92;100.00;99876.22;2585946;28;19921;-79
2022/11/11 04:12:30;;;;;;;;;;;;;;;4.00;100.00;99878.97;2585909;28;19957;-78
2022/11/11 04:16:55;;;;;;;;;;;;;;;3.90;100.00;99886.53;2585770;28;20002;-79
2022/11/11 04:18:10;;;;;;;;;;;;;;;4.02;100.00;99887.66;2585722;28;19929;-79
2022/11/11 04:22:38;;;;;;;;;;;;;;;3.67;100.00;99891.19;2585852;28;19932;-79
2022/11/11 04:23:54;;;;;;;;;;;;;;;3.79;100.00;99899.25;2586237;28;20093;-81
2022/11/11 04:26:43;;;;;;;;;;;;;;;3.79;100.00;99894.09;2587792;28;19929;-79
2022/11/11 04:29:33;;;;;;;;;;;;;;;3.93;100.00;99891.78;2587914;28;20353;-79
2022/11/11 04:30:49;;;;;;;;;;;;;;;4.02;100.00;99891.09;2588033;28;19975;-79
2022/11/11 04:33:40;;;;;;;;;;;;;;;4.04;100.00;99892.00;2588054;28;19926;-79
2022/11/11 04:34:56;;;;;;;;;;;;;;;4.14;100.00;99897.41;2587107;28;19967;-79
2022/11/11 04:36:12;;;;;;;;;;;;;;;3.99;100.00;99891.06;2586162;28;19968;-80
2022/11/11 04:37:30;;;;;;;;;;;;;;;3.83;100.00;99905.38;2587326;28;20336;-80
2022/11/11 04:41:54;;;;;;;;;;;;;;;4.15;100.00;99896.56;2587300;28;19933;-80
2022/11/11 04:43:10;;;;;;;;;;;;;;;4.13;100.00;99899.16;2587453;28;20367;-81
2022/11/11 04:45:59;;;;;;;;;;;;;;;4.18;100.00;99894.03;2588360;28;20056;-80
2022/11/11 04:47:15;;;;;;;;;;;;;;;4.09;100.00;99905.09;2587773;28;19970;-80
2022/11/11 04:48:31;;;;;;;;;;;;;;;4.07;100.00;99899.88;2587293;28;19926;-79
2022/11/11 04:49:46;;;;;;;;;;;;;;;4.13;100.00;99908.63;2576961;28;20008;-79
2022/11/11 04:51:01;;;;;;;;;;;;;;;4.04;100.00;99904.97;2581415;28;19925;-79
2022/11/11 04:52:26;;;;;;;;;;;;;;;4.12;100.00;99909.47;2587984;28;19926;-80
2022/11/11 04:53:41;;;;;;;;;;;;;;;4.01;100.00;99907.50;2587924;28;19972;-79
2022/11/11 04:56:48;;;;;;;;;;;;;;;3.84;100.00;99895.91;2587274;28;19932;-79
2022/11/11 04:58:04;;;;;;;;;;;;;;;3.98;100.00;99902.25;2587792;28;20013;-80
2022/11/11 04:59:19;;;;;;;;;;;;;;;4.03;100.00;99898.03;2587891;28;20388;-80
2022/11/11 05:00:35;;;;;;;;;;;;;;;4.05;100.00;99896.38;2587318;28;19929;-78
2022/11/11 05:03:24;;;;;;;;;;;;;;;4.00;100.00;99904.91;2587621;28;20494;-81
2022/11/11 05:04:40;;;;;;;;;;;;;;;3.94;100.00;99903.03;2576889;28;19932;-83
2022/11/11 05:09:04;;;;;;;;;;;;;;;3.60;100.00;99910.00;2587876;28;20031;-83
2022/11/11 05:10:20;;;;;;;;;;;;;;;3.46;100.00;99912.28;2588168;28;19951;-79
2022/11/11 05:11:36;;;;;;;;;;;;;;;3.50;100.00;99914.09;2587855;28;20398;-80
2022/11/11 05:12:51;;;;;;;;;;;;;;;3.59;100.00;99908.25;2586839;28;19925;-80
2022/11/11 05:22:10;;;;;;;;;;;;;;;3.90;100.00;99911.56;2556694;28;19932;-81
2022/11/11 05:25:24;;;;;;;;;;;;;;;3.90;100.00;99916.75;2585747;28;20291;-81
2022/11/11 05:26:36;;;;;;;;;;;;;;;3.40;100.00;99918.19;2586975;28;19936;-80
2022/11/11 05:27:52;;;;;;;;;;;;;;;3.48;100.00;99926.13;2586735;28;19931;-79
2022/11/11 05:29:07;;;;;;;;;;;;;;;3.67;100.00;99930.06;2586591;28;19925;-80
2022/11/11 05:30:24;;;;;;;;;;;;;;;3.50;100.00;99929.63;2586982;28;20433;-79
2022/11/11 05:31:39;;;;;;;;;;;;;;;3.66;100.00;99925.72;2587245;28;19925;-80
2022/11/11 05:32:55;;;;;;;;;;;;;;;3.72;100.00;99931.03;2586261;28;19929;-79
2022/11/11 05:34:10;;;;;;;;;;;;;;;3.99;100.00;99927.34;2587910;28;20422;-79
2022/11/11 05:35:26;;;;;;;;;;;;;;;3.80;100.00;99928.63;2587150;28;19940;-79
2022/11/11 05:36:41;;;;;;;;;;;;;;;3.92;100.00;99928.03;2586758;28;19948;-79
2022/11/11 05:38:19;;;;;;;;;;;;;;;4.10;100.00;99928.47;2586757;28;19925;-83
2022/11/11 05:39:34;;;;;;;;;;;;;;;3.73;100.00;99930.19;2587700;28;19925;-79
2022/11/11 05:40:50;;;;;;;;;;;;;;;3.33;100.00;99926.63;2586843;28;20327;-79
2022/11/11 05:42:05;;;;;;;;;;;;;;;3.40;100.00;99933.72;2587476;28;19925;-83
2022/11/11 05:43:20;;;;;;;;;;;;;;;3.62;100.00;99931.63;2587705;28;19925;-80
2022/11/11 05:44:36;;;;;;;;;;;;;;;3.47;100.00;99926.97;2587809;28;19929;-79
2022/11/11 05:45:51;;;;;;;;;;;;;;;3.35;100.00;99922.34;2587875;28;19984;-79
2022/11/11 05:47:07;;;;;;;;;;;;;;;3.57;100.00;99923.78;2587634;28;19944;-78
2022/11/11 05:48:22;;;;;;;;;;;;;;;3.71;100.00;99916.31;2587611;28;20032;-79
2022/11/11 05:49:38;;;;;;;;;;;;;;;3.79;100.00;99916.50;2586940;28;19925;-80
2022/11/11 05:50:53;;;;;;;;;;;;;;;3.82;100.00;99908.78;2587526;28;20015;-79
2022/11/11 05:52:10;;;;;;;;;;;;;;;3.61;100.00;99916.94;2586718;28;19922;-79
2022/11/11 05:53:25;;;;;;;;;;;;;;;3.50;100.00;99924.44;2587069;28;19972;-79
2022/11/11 05:54:44;;;;;;;;;;;;;;;3.39;100.00;99924.19;2586669;28;19940;-79
2022/11/11 05:55:59;;;;;;;;;;;;;;;3.61;100.00;99927.28;2586208;28;19925;-79
2022/11/11 05:57:15;;;;;;;;;;;;;;;3.53;100.00;99930.59;2584747;28;19929;-78
2022/11/11 05:58:30;;;;;;;;;;;;;;;3.57;100.00;99926.38;2586942;28;19925;-78
2022/11/11 05:59:47;;;;;;;;;;;;;;;3.67;100.00;99933.50;2587523;28;19976;-80
2022/11/11 06:01:02;;;;;;;;;;;;;;;3.87;100.00;99921.88;2587028;28;19925;-79
2022/11/11 06:02:18;;;;;;;;;;;;;;;3.98;100.00;99919.50;2585495;28;19928;-79
2022/11/11 06:03:33;;;;;;;;;;;;;;;3.90;100.00;99916.75;2584203;28;19925;-79
2022/11/11 06:04:49;;;;;;;;;;;;;;;3.40;100.00;99925.94;2586678;28;19933;-78
2022/11/11 06:06:04;;;;;;;;;;;;;;;3.32;100.00;99915.41;2586609;28;20423;-78
2022/11/11 06:07:20;;;;;;;;;;;;;;;3.47;100.00;99924.38;2587573;28;20376;-79
2022/11/11 06:08:35;;;;;;;;;;;;;;;3.37;100.00;99921.56;2585823;28;19925;-79
2022/11/11 06:09:51;;;;;;;;;;;;;;;3.41;100.00;99919.03;2585939;28;19965;-78
2022/11/11 06:11:06;;;;;;;;;;;;;;;3.49;100.00;99921.00;2585777;28;20941;-79
2022/11/11 06:12:22;;;;;;;;;;;;;;;3.75;100.00;99917.28;2586255;28;19999;-78
2022/11/11 06:13:37;;;;;;;;;;;;;;;3.68;100.00;99914.53;2587058;28;19925;-80
2022/11/11 06:14:52;;;;;;;;;;;;;;;3.59;100.00;99921.22;2587085;28;20052;-79
2022/11/11 06:16:08;;;;;;;;;;;;;;;3.50;100.00;99920.16;2586922;28;20020;-80
2022/11/11 06:17:24;;;;;;;;;;;;;;;3.45;100.00;99915.72;2587080;28;19925;-80
2022/11/11 06:18:39;;;;;;;;;;;;;;;3.72;100.00;99918.06;2586342;28;19925;-79
2022/11/11 06:19:54;;;;;;;;;;;;;;;3.68;100.00;99927.47;2587427;28;19980;-79
2022/11/11 06:21:10;;;;;;;;;;;;;;;3.50;100.00;99922.75;2586701;28;20024;-79
2022/11/11 06:22:55;;;;;;;;;;;;;;;3.53;100.00;99919.34;2587362;28;19929;-79
2022/11/11 06:24:01;;;;;;;;;;;;;;;3.19;100.00;99919.38;2582822;28;20415;-85
2022/11/11 06:26:50;;;;;;;;;;;;;;;3.49;100.00;99922.72;2585977;28;20024;-79
2022/11/11 06:28:06;;;;;;;;;;;;;;;3.46;100.00;99920.91;2586692;28;19932;-79
2022/11/11 06:29:21;;;;;;;;;;;;;;;3.64;100.00;99919.63;2586706;28;19925;-79
2022/11/11 06:30:37;;;;;;;;;;;;;;;3.79;100.00;99920.00;2586263;28;20044;-79
2022/11/11 06:31:52;;;;;;;;;;;;;;;3.85;100.00;99928.72;2586986;28;20020;-80
2022/11/11 06:33:08;;;;;;;;;;;;;;;3.66;100.00;99933.50;2587028;28;19932;-80
2022/11/11 06:34:23;;;;;;;;;;;;;;;3.78;100.00;99940.66;2586384;28;19937;-79
2022/11/11 06:35:39;;;;;;;;;;;;;;;4.06;100.00;99937.00;2586767;28;19925;-79
2022/11/11 06:36:54;;;;;;;;;;;;;;;4.09;100.00;99944.84;2585887;28;19991;-82
2022/11/11 06:38:10;;;;;;;;;;;;;;;4.21;100.00;99940.78;2587065;28;19936;-80
2022/11/11 06:39:25;;;;;;;;;;;;;;;3.98;100.00;99946.31;2586555;28;19925;-80
2022/11/11 06:40:41;;;;;;;;;;;;;;;3.87;100.00;99945.19;2586682;28;20009;-80
2022/11/11 06:41:58;;;;;;;;;;;;;;;4.13;100.00;99955.28;2586464;28;20003;-80
2022/11/11 06:43:13;;;;;;;;;;;;;;;4.02;100.00;99950.72;2586448;28;20391;-82
2022/11/11 06:44:29;;;;;;;;;;;;;;;4.25;100.00;99950.38;2586475;28;19972;-78
2022/11/11 06:45:44;;;;;;;;;;;;;;;4.32;100.00;99951.38;2586615;28;20143;-78
2022/11/11 06:47:00;;;;;;;;;;;;;;;4.34;100.00;99948.00;2586440;28;20434;-78
2022/11/11 06:48:15;;;;;;;;;;;;;;;4.55;100.00;99946.69;2586670;28;20474;-83
2022/11/11 06:49:30;;;;;;;;;;;;;;;4.65;100.00;99947.75;2585805;28;19975;-78
2022/11/11 06:50:46;;;;;;;;;;;;;;;4.54;100.00;99950.13;2587057;28;19925;-80
2022/11/11 06:52:02;;;;;;;;;;;;;;;4.67;100.00;99951.25;2586750;28;20016;-78
2022/11/11 06:53:18;;;;;;;;;;;;;;;4.48;100.00;99957.78;2586834;28;19921;-79
2022/11/11 06:54:34;;;;;;;;;;;;;;;4.51;100.00;99958.69;2586372;28;20395;-78
2022/11/11 06:55:50;;;;;;;;;;;;;;;4.63;100.00;99955.50;2586954;28;19972;-78
2022/11/11 06:57:06;;;;;;;;;;;;;;;4.66;100.00;99949.50;2586750;28;19941;-79
2022/11/11 06:58:21;;;;;;;;;;;;;;;4.70;100.00;99956.50;2587054;28;20358;-77
2022/11/11 06:59:37;;;;;;;;;;;;;;;4.65;100.00;99959.00;2586504;28;19942;-78
2022/11/11 07:00:52;;;;;;;;;;;;;;;4.52;100.00;99960.44;2585636;28;20617;-77
2022/11/11 07:02:14;;;;;;;;;;;;;;;4.50;100.00;99956.09;2586781;28;20020;-77
2022/11/11 07:03:29;;;;;;;;;;;;;;;4.73;100.00;99955.69;2586333;28;19979;-78
2022/11/11 07:04:45;;;;;;;;;;;;;;;4.81;100.00;99960.19;2586296;28;19928;-79
2022/11/11 07:06:00;;;;;;;;;;;;;;;4.87;100.00;99962.03;2586412;28;19944;-78
2022/11/11 07:07:16;;;;;;;;;;;;;;;4.88;100.00;99958.56;2586770;28;19971;-79
2022/11/11 07:08:32;;;;;;;;;;;;;;;4.90;100.00;99958.63;2586392;28;19925;-78
2022/11/11 07:09:48;;;;;;;;;;;;;;;4.97;100.00;99963.09;2586153;28;20363;-79
2022/11/11 07:11:04;;;;;;;;;;;;;;;5.03;100.00;99962.31;2586495;28;19925;-78
2022/11/11 07:12:20;;;;;;;;;;;;;;;5.14;100.00;99966.00;2586653;28;20439;-79
2022/11/11 07:13:36;;;;;;;;;;;;;;;5.02;100.00;99968.34;2586638;28;19972;-79
2022/11/11 07:14:51;;;;;;;;;;;;;;;5.08;100.00;99971.09;2586975;28;20288;-78
2022/11/11 07:16:07;;;;;;;;;;;;;;;5.17;100.00;99970.38;2586672;28;19925;-79
2022/11/11 07:17:22;;;;;;;;;;;;;;;5.25;100.00;99961.03;2586575;28;19931;-79
2022/11/11 07:18:38;;;;;;;;;;;;;;;5.26;100.00;99967.97;2586036;28;20296;-79
2022/11/11 07:19:53;;;;;;;;;;;;;;;5.11;100.00;99968.53;2586930;28;20435;-79
2022/11/11 07:21:08;;;;;;;;;;;;;;;5.21;100.00;99961.78;2585903;28;19929;-78
2022/11/11 07:22:24;;;;;;;;;;;;;;;5.33;100.00;99966.34;2586102;28;19987;-78
2022/11/11 07:23:39;;;;;;;;;;;;;;;5.44;100.00;99959.59;2586503;28;19925;-78
2022/11/11 07:24:55;;;;;;;;;;;;;;;5.45;100.00;99955.28;2586553;28;19937;-78
2022/11/11 07:26:10;;;;;;;;;;;;;;;5.42;100.00;99956.09;2586475;28;20392;-80
2022/11/11 07:27:26;;;;;;;;;;;;;;;5.46;100.00;99963.13;2586867;28;20338;-79
2022/11/11 07:28:41;;;;;;;;;;;;;;;5.45;100.00;99963.09;2586115;28;19925;-78
2022/11/11 07:29:57;;;;;;;;;;;;;;;5.38;100.00;99956.91;2586435;28;20288;-79
2022/11/11 07:31:12;;;;;;;;;;;;;;;5.49;100.00;99962.28;2586605;28;19928;-79
2022/11/11 07:32:27;;;;;;;;;;;;;;;5.43;100.00;99959.59;2586279;28;19983;-78
2022/11/11 07:33:43;;;;;;;;;;;;;;;5.58;100.00;99961.56;2586698;28;19921;-78
2022/11/11 07:34:58;;;;;;;;;;;;;;;5.35;100.00;99964.66;2586194;28;19925;-79
2022/11/11 07:36:14;;;;;;;;;;;;;;;5.26;100.00;99967.97;2586304;28;19932;-78
2022/11/11 07:37:30;;;;;;;;;;;;;;;5.18;100.00;99962.63;2586208;28;20419;-78
2022/11/11 07:38:46;;;;;;;;;;;;;;;4.89;100.00;99962.06;2586069;28;19929;-79
2022/11/11 07:40:01;;;;;;;;;;;;;;;5.01;100.00;99966.59;2585905;28;20822;-79
2022/11/11 07:41:16;;;;;;;;;;;;;;;5.16;100.00;99971.22;2585889;28;19925;-79
2022/11/11 07:42:34;;;;;;;;;;;;;;;5.12;100.00;99974.63;2585815;28;19929;-78
2022/11/11 07:43:50;;;;;;;;;;;;;;;5.04;100.00;99972.75;2586242;28;20383;-78
2022/11/11 07:45:08;;;;;;;;;;;;;;;5.15;100.00;99977.28;2585720;28;19932;-79
2022/11/11 07:46:23;;;;;;;;;;;;;;;5.25;100.00;99970.53;2586044;28;19921;-84
2022/11/11 07:47:41;;;;;;;;;;;;;;;5.37;100.00;99966.41;2586050;28;19925;-79
2022/11/11 07:48:56;;;;;;;;;;;;;;;5.20;100.00;99965.22;2586074;28;20376;-79